createdAt,value
2022-09-12T00:01:27.049Z,96798.21
2022-09-12T00:03:58.406Z,96797.55
2022-09-12T00:06:32.734Z,96795.85
2022-09-12T00:09:04.405Z,96792.48
2022-09-12T00:11:32.387Z,96793.02
2022-09-12T00:14:01.596Z,96794.83
2022-09-12T00:16:33.181Z,96794.50
2022-09-12T00:19:02.340Z,96788.08
2022-09-12T00:21:30.291Z,96786.05
2022-09-12T00:23:58.468Z,96785.23
2022-09-12T00:26:27.210Z,96782.77
2022-09-12T00:28:55.225Z,96782.75
2022-09-12T00:31:25.307Z,96781.88
2022-09-12T00:33:56.743Z,96778.09
2022-09-12T00:36:26.259Z,96782.06
2022-09-12T00:38:55.027Z,96777.08
2022-09-12T00:41:32.299Z,96781.48
2022-09-12T00:44:22.859Z,96780.14
2022-09-12T00:46:53.273Z,96783.26
2022-09-12T00:49:26.982Z,96780.89
2022-09-12T00:51:58.629Z,96781.45
2022-09-12T00:54:32.643Z,96777.98
2022-09-12T00:57:06.801Z,96778.55
2022-09-12T00:59:50.345Z,96778.46
2022-09-12T01:02:18.966Z,96781.10
2022-09-12T01:04:48.070Z,96778.31
2022-09-12T01:07:16.458Z,96776.30
2022-09-12T01:09:46.013Z,96779.55
2022-09-12T01:12:15.422Z,96778.00
2022-09-12T01:14:43.930Z,96774.39
2022-09-12T01:17:15.056Z,96777.09
2022-09-12T01:20:04.946Z,96776.67
2022-09-12T01:23:06.376Z,96786.34
2022-09-12T01:25:56.076Z,96791.95
2022-09-12T01:28:52.038Z,96792.20
2022-09-12T01:31:44.714Z,96793.58
2022-09-12T01:34:36.075Z,96793.94
2022-09-12T01:37:07.226Z,96789.52
2022-09-12T01:39:41.047Z,96790.11
2022-09-12T01:42:39.375Z,96789.02
2022-09-12T01:45:29.319Z,96791.24
2022-09-12T01:48:15.552Z,96789.45
2022-09-12T01:51:01.175Z,96790.17
2022-09-12T01:53:44.252Z,96788.12
2022-09-12T01:56:27.376Z,96787.41
2022-09-12T01:59:04.053Z,96785.41
2022-09-12T02:01:34.989Z,96783.10
2022-09-12T02:04:26.028Z,96782.96
2022-09-12T02:07:18.422Z,96780.29
2022-09-12T02:09:53.043Z,96778.24
2022-09-12T02:12:27.727Z,96771.17
2022-09-12T02:15:02.594Z,96773.16
2022-09-12T02:17:35.208Z,96774.82
2022-09-12T02:20:25.966Z,96774.30
2022-09-12T02:23:06.240Z,96772.60
2022-09-12T02:25:40.244Z,96776.25
2022-09-12T02:28:17.948Z,96779.58
2022-09-12T02:31:01.086Z,96780.58
2022-09-12T02:33:56.749Z,96783.75
2022-09-12T02:36:55.499Z,96784.21
2022-09-12T02:39:24.711Z,96784.23
2022-09-12T02:41:58.250Z,96791.66
2022-09-12T02:44:29.955Z,96795.19
2022-09-12T02:47:05.004Z,96797.70
2022-09-12T02:49:33.834Z,96798.10
2022-09-12T02:52:02.870Z,96799.03
2022-09-12T02:54:31.530Z,96798.73
2022-09-12T02:56:59.479Z,96801.03
2022-09-12T02:59:28.539Z,96798.77
2022-09-12T03:02:37.989Z,96798.25
2022-09-12T03:05:23.012Z,96799.83
2022-09-12T03:07:57.565Z,96808.21
2022-09-12T03:10:32.873Z,96807.84
2022-09-12T03:13:25.358Z,96810.36
2022-09-12T03:16:08.714Z,96815.66
2022-09-12T03:19:14.995Z,96816.58
2022-09-12T03:21:55.241Z,96815.33
2022-09-12T03:24:35.461Z,96818.31
2022-09-12T03:27:30.280Z,96822.09
2022-09-12T03:30:00.230Z,96831.69
2022-09-12T03:32:49.885Z,96822.95
2022-09-12T03:35:23.192Z,96830.41
2022-09-12T03:37:53.288Z,96835.41
2022-09-12T03:40:21.383Z,96834.85
2022-09-12T03:42:49.373Z,96838.45
2022-09-12T03:45:17.519Z,96842.04
2022-09-12T03:47:45.817Z,96847.55
2022-09-12T03:50:13.846Z,96850.85
2022-09-12T03:52:42.310Z,96850.13
2022-09-12T03:55:10.464Z,96854.61
2022-09-12T03:57:38.730Z,96851.83
2022-09-12T04:00:11.151Z,96856.80
2022-09-12T04:02:41.919Z,96856.25
2022-09-12T04:05:09.948Z,96855.86
2022-09-12T04:07:37.923Z,96863.44
2022-09-12T04:10:06.358Z,96861.25
2022-09-12T04:12:35.754Z,96864.90
2022-09-12T04:15:04.056Z,96872.89
2022-09-12T04:17:32.637Z,96873.81
2022-09-12T04:20:01.086Z,96878.11
2022-09-12T04:22:30.301Z,96883.73
2022-09-12T04:24:58.302Z,96887.27
2022-09-12T04:27:26.254Z,96884.60
2022-09-12T04:29:55.422Z,96882.00
2022-09-12T04:32:23.570Z,96885.15
2022-09-12T04:34:52.754Z,96888.38
2022-09-12T04:37:21.717Z,96884.05
2022-09-12T04:39:50.037Z,96890.38
2022-09-12T04:42:18.065Z,96893.05
2022-09-12T04:44:46.003Z,96895.88
2022-09-12T04:47:14.084Z,96893.50
2022-09-12T04:49:42.120Z,96894.06
2022-09-12T04:52:10.049Z,96898.39
2022-09-12T04:54:38.136Z,96902.48
2022-09-12T04:57:06.099Z,96905.52
2022-09-12T04:59:34.059Z,96907.25
2022-09-12T05:02:02.745Z,96905.69
2022-09-12T05:04:34.499Z,96906.80
2022-09-12T05:07:03.012Z,96901.84
2022-09-12T05:09:31.054Z,96904.35
2022-09-12T05:12:04.255Z,96909.14
2022-09-12T05:14:34.855Z,96915.73
2022-09-12T05:17:04.109Z,96924.04
2022-09-12T05:19:33.136Z,96928.23
2022-09-12T05:22:01.294Z,96930.40
2022-09-12T05:24:29.696Z,96925.90
2022-09-12T05:26:57.633Z,96925.80
2022-09-12T05:29:25.733Z,96924.64
2022-09-12T05:31:53.873Z,96929.94
2022-09-12T05:34:22.495Z,96933.42
2022-09-12T05:36:51.798Z,96931.60
2022-09-12T05:39:21.333Z,96934.02
2022-09-12T05:41:49.741Z,96931.73
2022-09-12T05:44:27.169Z,96931.45
2022-09-12T05:46:55.126Z,96930.43
2022-09-12T05:49:23.301Z,96927.37
2022-09-12T05:51:51.813Z,96925.48
2022-09-12T05:54:20.858Z,96925.23
2022-09-12T05:56:49.352Z,96927.39
2022-09-12T05:59:21.783Z,96925.98
2022-09-12T06:01:50.330Z,96923.69
2022-09-12T06:04:18.762Z,96926.32
2022-09-12T06:06:47.101Z,96927.17
2022-09-12T06:09:16.911Z,96928.98
2022-09-12T06:11:46.422Z,96925.95
2022-09-12T06:14:17.785Z,96924.65
2022-09-12T06:16:47.533Z,96926.68
2022-09-12T06:19:19.287Z,96926.25
2022-09-12T06:21:49.842Z,96926.97
2022-09-12T06:24:19.673Z,96925.86
2022-09-12T06:26:49.907Z,96928.53
2022-09-12T06:29:19.361Z,96928.76
2022-09-12T06:31:47.873Z,96931.19
2022-09-12T06:34:16.715Z,96934.71
2022-09-12T06:36:49.059Z,96934.63
2022-09-12T06:39:22.358Z,96937.44
2022-09-12T06:41:52.153Z,96934.94
2022-09-12T06:44:29.988Z,96935.95
2022-09-12T06:46:58.954Z,96933.84
2022-09-12T06:49:26.929Z,96934.87
2022-09-12T06:51:54.910Z,96937.23
2022-09-12T06:54:23.595Z,96937.34
2022-09-12T06:56:51.440Z,96938.02
2022-09-12T06:59:20.222Z,96934.19
2022-09-12T07:01:48.310Z,96934.92
2022-09-12T07:04:16.388Z,96935.05
2022-09-12T07:06:45.131Z,96936.86
2022-09-12T07:09:17.192Z,96936.13
2022-09-12T07:11:46.469Z,96939.80
2022-09-12T07:14:15.155Z,96940.19
2022-09-12T07:16:44.278Z,96940.52
2022-09-12T07:19:12.413Z,96939.10
2022-09-12T07:21:41.005Z,96941.35
2022-09-12T07:24:10.981Z,96938.44
2022-09-12T07:26:42.506Z,96945.13
2022-09-12T07:29:35.779Z,96942.66
2022-09-12T07:32:05.968Z,96944.08
2022-09-12T07:34:36.149Z,96943.94
2022-09-12T07:37:06.113Z,96945.59
2022-09-12T07:39:34.114Z,96947.23
2022-09-12T07:42:02.073Z,96952.46
2022-09-12T07:44:31.565Z,96955.44
2022-09-12T07:46:59.515Z,96951.29
2022-09-12T07:49:27.541Z,96951.60
2022-09-12T07:51:56.213Z,96950.05
2022-09-12T07:54:24.431Z,96953.63
2022-09-12T07:56:52.518Z,96957.95
2022-09-12T07:59:41.432Z,96953.14
2022-09-12T08:02:17.789Z,96959.95
2022-09-12T08:04:48.766Z,96956.31
2022-09-12T08:07:19.256Z,96958.14
2022-09-12T08:09:47.676Z,96959.61
2022-09-12T08:12:17.887Z,96958.98
2022-09-12T08:14:46.461Z,96952.88
2022-09-12T08:17:14.570Z,96955.96
2022-09-12T08:19:42.591Z,96951.36
2022-09-12T08:22:11.749Z,96953.52
2022-09-12T08:24:39.761Z,96948.33
2022-09-12T08:27:08.118Z,96954.65
2022-09-12T08:29:35.993Z,96949.81
2022-09-12T08:32:04.268Z,96951.48
2022-09-12T08:34:32.645Z,96949.38
2022-09-12T08:37:00.689Z,96947.95
2022-09-12T08:39:28.898Z,96951.66
2022-09-12T08:42:06.746Z,96949.93
2022-09-12T08:44:55.846Z,96950.45
2022-09-12T08:47:31.955Z,96951.77
2022-09-12T08:50:09.649Z,96946.88
2022-09-12T08:52:53.227Z,96950.71
2022-09-12T08:55:46.543Z,96950.46
2022-09-12T08:58:20.286Z,96950.11
2022-09-12T09:01:03.882Z,96944.83
2022-09-12T09:03:40.820Z,96940.25
2022-09-12T09:06:47.313Z,96942.45
2022-09-12T09:09:21.036Z,96937.30
2022-09-12T09:12:12.114Z,96938.37
2022-09-12T09:14:52.216Z,96939.21
2022-09-12T09:17:32.920Z,96936.86
2022-09-12T09:20:25.841Z,96936.17
2022-09-12T09:23:03.338Z,96931.42
2022-09-12T09:25:53.893Z,96930.84
2022-09-12T09:28:25.305Z,96936.48
2022-09-12T09:30:53.903Z,96929.11
2022-09-12T09:33:26.280Z,96933.18
2022-09-12T09:35:57.019Z,96933.90
2022-09-12T09:38:46.397Z,96940.26
2022-09-12T09:41:25.990Z,96943.54
2022-09-12T09:43:54.062Z,96940.48
2022-09-12T09:46:22.330Z,96942.90
2022-09-12T09:48:51.907Z,96951.70
2022-09-12T09:51:28.934Z,96947.15
2022-09-12T09:54:02.956Z,96943.30
2022-09-12T09:56:37.849Z,96946.80
2022-09-12T09:59:28.661Z,96938.77
2022-09-12T10:02:04.026Z,96940.73
2022-09-12T10:04:41.495Z,96936.61
2022-09-12T10:07:22.045Z,96934.98
2022-09-12T10:10:17.255Z,96939.96
2022-09-12T10:12:46.108Z,96939.06
2022-09-12T10:15:29.532Z,96940.31
2022-09-12T10:18:00.660Z,96939.51
2022-09-12T10:20:37.952Z,96940.84
2022-09-12T10:23:37.564Z,96943.19
2022-09-12T10:26:11.618Z,96936.55
2022-09-12T10:28:45.448Z,96933.71
2022-09-12T10:31:29.328Z,96930.77
2022-09-12T10:33:59.755Z,96936.21
2022-09-12T10:36:38.538Z,96931.51
2022-09-12T10:39:07.655Z,96938.95
2022-09-12T10:41:41.279Z,96941.89
2022-09-12T10:44:17.288Z,96939.28
2022-09-12T10:46:45.985Z,96946.29
2022-09-12T10:49:21.464Z,96944.88
2022-09-12T10:51:50.891Z,96946.71
2022-09-12T10:54:21.613Z,96944.50
2022-09-12T10:57:01.858Z,96949.60
2022-09-12T10:59:46.276Z,96948.84
2022-09-12T11:02:29.758Z,96946.92
2022-09-12T11:05:13.845Z,96953.21
2022-09-12T11:07:49.829Z,96952.02
2022-09-12T11:10:36.884Z,96951.42
2022-09-12T11:13:30.244Z,96953.98
2022-09-12T11:16:18.795Z,96955.48
2022-09-12T11:19:33.865Z,96962.38
2022-09-12T11:22:31.872Z,96955.77
2022-09-12T11:25:18.150Z,96956.61
2022-09-12T11:28:12.884Z,96956.89
2022-09-12T11:30:59.104Z,96960.66
2022-09-12T11:33:45.291Z,96960.97
2022-09-12T11:36:28.767Z,96960.86
2022-09-12T11:39:15.634Z,96955.67
2022-09-12T11:41:50.899Z,96962.72
2022-09-12T11:44:40.246Z,96955.74
2022-09-12T11:47:12.871Z,96960.17
2022-09-12T11:49:51.231Z,96961.49
2022-09-12T11:52:28.772Z,96960.77
2022-09-12T11:55:09.031Z,96964.16
2022-09-12T11:57:43.497Z,96961.23
2022-09-12T12:00:23.938Z,96954.95
2022-09-12T12:03:11.379Z,96958.20
2022-09-12T12:05:54.513Z,96956.65
2022-09-12T12:08:24.418Z,96960.39
2022-09-12T12:10:58.679Z,96960.58
2022-09-12T12:13:32.020Z,96963.20
2022-09-12T12:16:08.150Z,96956.93
2022-09-12T12:18:41.049Z,96957.73
2022-09-12T12:21:41.349Z,96951.23
2022-09-12T12:24:09.305Z,96951.14
2022-09-12T12:26:40.235Z,96954.48
2022-09-12T12:29:17.079Z,96956.70
2022-09-12T12:32:02.683Z,96956.02
2022-09-12T12:34:32.362Z,96961.89
2022-09-12T12:37:20.334Z,96959.80
2022-09-12T12:39:51.243Z,96958.85
2022-09-12T12:42:42.612Z,96956.95
2022-09-12T12:45:22.550Z,96958.79
2022-09-12T12:48:05.080Z,96956.14
2022-09-12T12:50:36.196Z,96953.50
2022-09-12T12:53:16.506Z,96960.05
2022-09-12T12:55:44.439Z,96959.91
2022-09-12T12:58:37.280Z,96956.27
2022-09-12T13:01:16.141Z,96951.39
2022-09-12T13:03:59.394Z,96951.16
2022-09-12T13:06:45.425Z,96949.94
2022-09-12T13:09:14.478Z,96956.95
2022-09-12T13:11:42.850Z,96954.11
2022-09-12T13:14:47.756Z,96954.64
2022-09-12T13:17:26.498Z,96952.36
2022-09-12T13:20:26.732Z,96948.38
2022-09-12T13:22:54.820Z,96944.14
2022-09-12T13:25:23.864Z,96946.79
2022-09-12T13:27:58.795Z,96950.98
2022-09-12T13:30:29.473Z,96951.64
2022-09-12T13:33:02.979Z,96948.48
2022-09-12T13:35:57.033Z,96954.51
2022-09-12T13:39:02.704Z,96957.20
2022-09-12T13:42:00.235Z,96956.83
2022-09-12T13:44:30.272Z,96953.63
2022-09-12T13:47:01.768Z,96958.59
2022-09-12T13:49:36.201Z,96961.39
2022-09-12T13:52:16.215Z,96962.48
2022-09-12T13:54:51.777Z,96958.23
2022-09-12T13:57:38.234Z,96956.49
2022-09-12T14:00:18.265Z,96956.93
2022-09-12T14:02:48.598Z,96954.91
2022-09-12T14:05:24.354Z,96954.48
2022-09-12T14:07:53.581Z,96953.48
2022-09-12T14:10:33.213Z,96952.81
2022-09-12T14:13:05.614Z,96951.06
2022-09-12T14:15:37.119Z,96952.20
2022-09-12T14:18:08.381Z,96950.27
2022-09-12T14:20:38.673Z,96951.33
2022-09-12T14:23:25.227Z,96950.07
2022-09-12T14:25:54.694Z,96952.14
2022-09-12T15:27:47.125Z,96939.36
2022-09-12T15:30:15.712Z,96938.14
2022-09-12T15:32:44.924Z,96939.61
2022-09-12T15:35:22.627Z,96945.76
2022-09-12T15:37:50.899Z,96945.14
2022-09-12T15:40:19.135Z,96943.40
2022-09-12T15:42:47.061Z,96943.38
2022-09-12T15:45:29.317Z,96939.69
2022-09-12T15:47:57.977Z,96939.31
2022-09-12T15:50:26.550Z,96940.89
2022-09-12T15:52:55.749Z,96944.10
2022-09-12T15:55:27.864Z,96949.64
2022-09-12T15:57:55.905Z,96952.00
2022-09-12T16:00:24.788Z,96946.71
2022-09-12T16:02:54.271Z,96945.19
2022-09-12T16:05:25.315Z,96943.98
2022-09-12T16:07:55.005Z,96943.17
2022-09-12T16:10:26.536Z,96944.52
2022-09-12T16:12:54.759Z,96950.71
2022-09-12T16:15:25.339Z,96952.27
2022-09-12T16:17:53.678Z,96951.41
2022-09-12T16:20:22.884Z,96954.62
2022-09-12T16:22:50.854Z,96956.86
2022-09-12T16:25:18.949Z,96960.36
2022-09-12T16:27:46.977Z,96957.43
2022-09-12T16:30:14.990Z,96958.88
2022-09-12T16:32:42.831Z,96957.60
2022-09-12T16:35:10.732Z,96958.66
2022-09-12T16:37:38.684Z,96955.65
2022-09-12T16:40:07.713Z,96957.52
2022-09-12T16:42:37.415Z,96961.18
2022-09-12T16:45:07.738Z,96964.02
2022-09-12T16:47:35.799Z,96957.35
2022-09-12T16:50:04.182Z,96961.30
2022-09-12T16:52:33.896Z,96961.30
2022-09-12T16:55:01.830Z,96962.96
2022-09-12T16:57:29.742Z,96959.94
2022-09-12T16:59:57.803Z,96961.21
2022-09-12T17:02:26.587Z,96961.86
2022-09-12T17:04:55.196Z,96958.23
2022-09-12T17:07:23.060Z,96963.32
2022-09-12T17:09:51.463Z,96963.04
2022-09-12T17:12:21.870Z,96968.98
2022-09-12T17:14:53.193Z,96968.71
2022-09-12T17:17:22.413Z,96965.37
2022-09-12T17:19:51.084Z,96964.01
2022-09-12T17:22:19.211Z,96966.23
2022-09-12T17:24:47.323Z,96965.98
2022-09-12T17:27:15.319Z,96968.92
2022-09-12T17:29:43.484Z,96967.04
2022-09-12T17:32:14.466Z,96967.71
2022-09-12T17:34:45.385Z,96966.36
2022-09-12T17:37:14.462Z,96970.96
2022-09-12T17:39:42.757Z,96974.36
2022-09-12T17:42:10.699Z,96971.73
2022-09-12T17:44:38.730Z,96973.29
2022-09-12T17:47:06.792Z,96974.14
2022-09-12T17:49:35.826Z,96974.70
2022-09-12T17:52:03.714Z,96973.60
2022-09-12T17:54:31.795Z,96975.61
2022-09-12T17:56:59.784Z,96975.63
2022-09-12T17:59:28.616Z,96986.93
2022-09-12T18:02:16.220Z,97004.95
2022-09-12T18:04:48.533Z,97004.45
2022-09-12T18:07:18.494Z,97007.15
2022-09-12T18:09:50.703Z,97008.07
2022-09-12T18:12:20.082Z,97010.50
2022-09-12T18:14:48.015Z,97015.59
2022-09-12T18:17:16.461Z,97014.77
2022-09-12T18:19:49.266Z,97015.41
2022-09-12T18:22:21.034Z,97022.84
2022-09-12T18:24:48.895Z,97019.12
2022-09-12T18:27:16.926Z,97021.77
2022-09-12T18:29:51.943Z,97021.85
2022-09-12T18:32:32.615Z,97034.08
2022-09-12T18:35:00.586Z,97037.82
2022-09-12T18:37:28.607Z,97040.05
2022-09-12T18:39:57.981Z,97039.91
2022-09-12T18:42:26.090Z,97042.77
2022-09-12T18:44:54.064Z,97042.41
2022-09-12T18:47:23.600Z,97038.79
2022-09-12T18:49:51.552Z,97038.80
2022-09-12T18:52:19.481Z,97048.61
2022-09-12T18:54:47.743Z,97049.77
2022-09-12T18:57:18.416Z,97049.66
2022-09-12T18:59:46.347Z,97057.74
2022-09-12T19:02:17.489Z,97057.55
2022-09-12T19:04:45.447Z,97054.98
2022-09-12T19:07:14.073Z,97048.69
2022-09-12T19:09:42.185Z,97049.20
2022-09-12T19:12:10.354Z,97048.70
2022-09-12T19:14:38.410Z,97049.92
2022-09-12T19:17:06.345Z,97045.67
2022-09-12T19:19:37.668Z,97043.41
2022-09-12T19:22:11.536Z,97050.30
2022-09-12T19:24:39.933Z,97051.92
2022-09-12T19:27:07.931Z,97052.52
2022-09-12T19:29:35.915Z,97050.66
2022-09-12T19:32:03.814Z,97050.89
2022-09-12T19:34:31.670Z,97050.20
2022-09-12T19:36:59.629Z,97049.29
2022-09-12T19:39:27.503Z,97056.52
2022-09-12T19:41:55.387Z,97053.52
2022-09-12T19:44:27.150Z,97057.93
2022-09-12T19:46:55.152Z,97058.86
2022-09-12T19:49:23.078Z,97058.21
2022-09-12T19:51:51.104Z,97056.77
2022-09-12T19:54:19.391Z,97059.75
2022-09-12T19:56:47.414Z,97055.59
2022-09-12T19:59:15.260Z,97056.36
2022-09-12T20:01:43.303Z,97055.96
2022-09-12T20:04:11.393Z,97057.26
2022-09-12T20:06:39.267Z,97057.20
2022-09-12T20:09:07.168Z,97052.91
2022-09-12T20:11:35.585Z,97052.11
2022-09-12T20:14:03.536Z,97055.57
2022-09-12T20:16:33.554Z,97057.47
2022-09-12T20:19:07.082Z,97059.61
2022-09-12T20:21:36.484Z,97058.87
2022-09-12T20:24:12.101Z,97058.98
2022-09-12T20:26:40.898Z,97063.97
2022-09-12T20:29:10.163Z,97060.80
2022-09-12T20:31:40.039Z,97060.74
2022-09-12T20:34:13.633Z,97057.39
2022-09-12T20:36:41.749Z,97057.98
2022-09-12T20:39:21.387Z,97057.77
2022-09-12T20:41:49.347Z,97054.50
2022-09-12T20:44:17.607Z,97053.52
2022-09-12T20:46:45.640Z,97063.57
2022-09-12T20:49:13.644Z,97066.77
2022-09-12T20:51:41.701Z,97065.84
2022-09-12T20:54:10.907Z,97065.06
2022-09-12T20:56:39.242Z,97063.85
2022-09-12T20:59:12.831Z,97064.20
2022-09-12T21:01:40.865Z,97062.20
2022-09-12T21:04:12.982Z,97060.33
2022-09-12T21:06:42.837Z,97055.90
2022-09-12T21:09:10.944Z,97061.98
2022-09-12T21:11:38.869Z,97059.09
2022-09-12T21:14:06.865Z,97062.97
2022-09-12T21:16:38.826Z,97061.84
2022-09-12T21:19:07.016Z,97061.12
2022-09-12T21:21:34.929Z,97060.34
2022-09-12T21:24:04.034Z,97061.09
2022-09-12T21:26:32.888Z,97060.06
2022-09-12T21:29:00.810Z,97061.83
2022-09-12T21:31:28.798Z,97063.79
2022-09-12T21:33:56.778Z,97062.40
2022-09-12T21:36:25.385Z,97067.73
2022-09-12T21:38:53.428Z,97066.66
2022-09-12T21:41:21.393Z,97065.15
2022-09-12T21:43:49.954Z,97063.81
2022-09-12T21:46:18.264Z,97059.52
2022-09-12T21:48:46.308Z,97053.67
2022-09-12T21:51:14.271Z,97050.20
2022-09-12T21:53:42.839Z,97050.89
2022-09-12T21:56:11.233Z,97047.41
2022-09-12T21:58:39.490Z,97046.00
2022-09-12T22:01:09.744Z,97044.57
2022-09-12T22:03:37.927Z,97042.87
2022-09-12T22:06:06.445Z,97041.61
2022-09-12T22:08:36.138Z,97038.85
2022-09-12T22:11:09.631Z,97035.77
2022-09-12T22:13:39.367Z,97037.89
2022-09-12T22:16:07.750Z,97033.26
2022-09-12T22:18:36.862Z,97031.31
2022-09-12T22:21:14.775Z,97029.95
2022-09-12T22:24:01.635Z,97023.36
2022-09-12T22:26:34.613Z,97027.32
2022-09-12T22:29:02.628Z,97024.20
2022-09-12T22:31:31.264Z,97019.36
2022-09-12T22:33:59.665Z,97022.55
2022-09-12T22:36:31.138Z,97023.30
2022-09-12T22:39:00.462Z,97019.63
2022-09-12T22:41:28.576Z,97020.58
2022-09-12T22:43:57.771Z,97018.47
2022-09-12T22:46:25.961Z,97016.96
2022-09-12T22:48:55.817Z,97014.98
2022-09-12T22:51:24.444Z,97014.59
2022-09-12T22:53:52.551Z,97016.77
2022-09-12T22:56:20.525Z,97013.79
2022-09-12T22:58:49.175Z,97007.27
2022-09-12T23:01:17.996Z,97007.35
2022-09-12T23:03:46.121Z,96999.77
2022-09-12T23:06:14.191Z,96995.88
2022-09-12T23:08:42.276Z,96995.36
2022-09-12T23:11:15.048Z,96999.50
2022-09-12T23:13:47.091Z,96998.11
2022-09-12T23:16:22.048Z,96998.20
2022-09-12T23:18:50.417Z,96993.49
2022-09-12T23:21:21.231Z,96990.52
2022-09-12T23:23:50.813Z,96984.81
2022-09-12T23:26:22.108Z,96986.06
2022-09-12T23:28:55.474Z,96981.83
2022-09-12T23:31:27.528Z,96981.52
2022-09-12T23:33:57.102Z,96979.80
2022-09-12T23:36:25.991Z,96982.30
2022-09-12T23:38:55.516Z,96987.05
2022-09-12T23:41:24.173Z,96981.41
2022-09-12T23:43:52.325Z,96983.23
2022-09-12T23:46:21.344Z,96976.56
2022-09-12T23:48:49.528Z,96978.15
2022-09-12T23:51:17.699Z,96976.55
2022-09-12T23:53:45.614Z,96979.40
2022-09-12T23:56:13.545Z,96977.83
2022-09-12T23:58:41.975Z,96978.08
